Time;durP1;ratioP1;P1;durP2;ratioP2;P2;SDS_P1;SDS_P2;PMS_P1;PMS_P2;Temp;Humidity;BMP_temperature;BMP_pressure;BME280_temperature;BME280_humidity;BME280_pressure;Samples;Min_cycle;Max_cycle;Signal;HPM_P1;HPM_P2
2023/04/11 00:01:28;;;;;;;9.48;1.63;;;8.10;99.90;;;;;;5075737;28;20044;-21
2023/04/11 00:03:55;;;;;;;10.35;1.80;;;7.90;99.90;;;;;;5076427;28;20119;-21
2023/04/11 00:06:22;;;;;;;7.05;1.38;;;7.80;99.90;;;;;;5058376;28;20471;-20
2023/04/11 00:08:48;;;;;;;12.18;1.30;;;7.80;99.90;;;;;;5041327;28;20079;-20
2023/04/11 00:11:14;;;;;;;6.93;1.50;;;7.60;99.90;;;;;;5076315;28;20080;-20
2023/04/11 00:13:41;;;;;;;14.18;2.15;;;7.50;99.90;;;;;;5075672;28;20049;-20
2023/04/11 00:16:08;;;;;;;11.23;1.92;;;7.50;99.90;;;;;;5057953;28;20052;-20
2023/04/11 00:18:36;;;;;;;10.60;1.95;;;7.50;99.90;;;;;;5057895;28;20048;-20
2023/04/11 00:21:07;;;;;;;11.60;2.05;;;7.50;99.90;;;;;;5075494;28;20048;-20
2023/04/11 00:23:32;;;;;;;8.63;1.83;;;7.50;99.90;;;;;;5076032;28;20045;-20
2023/04/11 00:25:58;;;;;;;11.52;2.13;;;7.40;99.90;;;;;;5075348;28;20060;-20
2023/04/11 00:28:24;;;;;;;9.10;1.90;;;7.30;99.90;;;;;;5057303;28;20063;-20
2023/04/11 00:30:49;;;;;;;10.05;2.33;;;7.50;99.90;;;;;;5058264;28;20048;-20
2023/04/11 00:33:15;;;;;;;15.90;2.25;;;7.30;99.90;;;;;;5057905;28;20048;-20
2023/04/11 00:35:41;;;;;;;14.07;2.58;;;7.30;99.90;;;;;;5075751;28;20051;-20
2023/04/11 00:38:07;;;;;;;15.50;2.67;;;7.20;99.90;;;;;;5075222;28;20045;-20
2023/04/11 00:40:33;;;;;;;10.38;2.10;;;7.20;99.90;;;;;;5075038;28;20475;-20
2023/04/11 00:42:58;;;;;;;10.65;2.35;;;7.10;99.90;;;;;;5075609;28;20048;-20
2023/04/11 00:45:24;;;;;;;18.63;2.40;;;7.30;99.90;;;;;;5057140;28;20093;-20
2023/04/11 00:47:50;;;;;;;13.98;3.42;;;7.40;99.90;;;;;;5075520;28;20378;-21
2023/04/11 00:50:17;;;;;;;15.95;2.70;;;7.40;99.90;;;;;;5057044;28;20044;-21
2023/04/11 00:52:45;;;;;;;18.15;3.05;;;7.40;99.90;;;;;;5057537;28;20368;-20
2023/04/11 00:55:11;;;;;;;14.32;3.03;;;7.50;99.90;;;;;;5074805;28;20056;-21
2023/04/11 00:57:37;;;;;;;12.18;3.33;;;7.50;99.90;;;;;;5074701;28;20044;-21
2023/04/11 01:00:04;;;;;;;23.42;3.28;;;7.60;99.90;;;;;;5056811;28;20097;-20
2023/04/11 01:02:29;;;;;;;13.18;3.22;;;7.50;99.90;;;;;;5057124;28;20052;-20
2023/04/11 01:04:56;;;;;;;19.55;3.35;;;7.50;99.90;;;;;;5074658;28;20041;-20
2023/04/11 01:07:23;;;;;;;29.90;4.68;;;7.40;99.90;;;;;;5056857;28;20398;-21
2023/04/11 01:09:51;;;;;;;20.35;2.67;;;7.40;99.90;;;;;;5056670;28;20052;-21
2023/04/11 01:12:17;;;;;;;19.35;2.67;;;7.40;99.90;;;;;;5074389;28;20071;-21
2023/04/11 01:14:46;;;;;;;14.23;2.47;;;7.50;99.90;;;;;;5074407;28;20059;-21
2023/04/11 01:17:13;;;;;;;19.35;2.97;;;7.50;99.90;;;;;;5074426;28;20141;-21
2023/04/11 01:19:39;;;;;;;11.00;1.58;;;7.30;99.90;;;;;;5056429;28;20113;-21
2023/04/11 01:22:06;;;;;;;10.52;2.08;;;7.40;99.90;;;;;;5074836;28;20048;-21
2023/04/11 01:24:32;;;;;;;13.82;1.60;;;7.40;99.90;;;;;;5074252;28;20570;-21
2023/04/11 01:26:58;;;;;;;15.15;1.40;;;7.40;99.90;;;;;;5074249;28;20123;-21
2023/04/11 01:29:23;;;;;;;13.27;1.90;;;7.40;99.90;;;;;;5074234;28;20466;-21
2023/04/11 01:31:50;;;;;;;8.80;1.65;;;7.30;99.90;;;;;;5075015;28;20040;-21
2023/04/11 01:34:17;;;;;;;16.38;2.17;;;7.40;99.90;;;;;;5074108;28;20040;-21
2023/04/11 01:36:43;;;;;;;17.05;2.20;;;7.40;99.90;;;;;;5074310;28;20066;-21
2023/04/11 01:39:09;;;;;;;17.05;2.83;;;7.40;99.90;;;;;;5074546;28;20164;-21
2023/04/11 01:41:36;;;;;;;16.80;2.75;;;7.40;99.90;;;;;;5074791;28;20041;-21
2023/04/11 01:44:05;;;;;;;12.50;1.58;;;7.40;99.90;;;;;;5074232;28;20058;-21
2023/04/11 01:46:31;;;;;;;10.27;1.30;;;7.40;99.90;;;;;;5073886;28;20059;-21
2023/04/11 01:48:57;;;;;;;13.55;2.00;;;7.50;99.90;;;;;;5074179;28;20103;-21
2023/04/11 01:51:23;;;;;;;6.60;1.35;;;7.40;99.90;;;;;;5073864;28;20044;-21
2023/04/11 01:53:49;;;;;;;9.50;1.27;;;7.50;99.90;;;;;;5073759;28;20182;-21
2023/04/11 01:56:14;;;;;;;9.55;1.27;;;7.40;99.90;;;;;;5056003;28;20048;-21
2023/04/11 01:58:40;;;;;;;8.85;1.13;;;7.40;99.90;;;;;;5056116;28;20420;-21
2023/04/11 02:01:06;;;;;;;5.15;1.13;;;7.40;99.90;;;;;;5073648;28;20040;-21
2023/04/11 02:03:32;;;;;;;6.30;0.80;;;7.20;99.90;;;;;;5073673;28;20175;-21
2023/04/11 02:05:58;;;;;;;9.82;1.38;;;7.30;99.90;;;;;;5074202;28;20044;-21
2023/04/11 02:08:23;;;;;;;6.60;1.13;;;7.30;99.90;;;;;;5074202;28;20435;-21
2023/04/11 02:10:49;;;;;;;6.25;1.23;;;7.20;99.90;;;;;;5073596;28;20126;-21
2023/04/11 02:13:15;;;;;;;10.43;1.20;;;7.20;99.90;;;;;;5073594;28;20139;-21
2023/04/11 02:15:41;;;;;;;4.43;1.08;;;7.20;99.90;;;;;;5055893;28;20052;-21
2023/04/11 02:18:08;;;;;;;8.32;1.08;;;7.20;99.90;;;;;;5073507;28;20045;-21
2023/04/11 02:20:36;;;;;;;6.55;1.10;;;7.20;99.90;;;;;;5073445;28;20124;-21
2023/04/11 02:23:03;;;;;;;9.52;1.20;;;7.20;99.90;;;;;;5074645;28;20045;-21
2023/04/11 02:25:30;;;;;;;5.85;0.73;;;7.20;99.90;;;;;;5079736;28;20563;-21
2023/04/11 02:27:56;;;;;;;3.30;0.40;;;7.20;99.90;;;;;;5080154;28;20120;-21
2023/04/11 02:30:22;;;;;;;4.20;0.90;;;7.20;99.90;;;;;;5062397;28;20052;-21
2023/04/11 02:32:48;;;;;;;5.82;0.98;;;7.20;99.90;;;;;;5080592;28;20049;-21
2023/04/11 02:35:15;;;;;;;10.98;1.60;;;7.10;99.90;;;;;;5080056;28;20048;-21
2023/04/11 02:37:41;;;;;;;5.10;0.88;;;7.20;99.90;;;;;;5080038;28;20123;-21
2023/04/11 02:40:07;;;;;;;3.10;0.77;;;7.20;99.90;;;;;;5079954;28;20128;-21
2023/04/11 02:42:33;;;;;;;7.45;0.90;;;7.20;99.90;;;;;;5080519;28;20044;-21
2023/04/11 02:44:59;;;;;;;4.47;0.77;;;7.20;99.90;;;;;;5079977;28;20059;-21
2023/04/11 02:47:25;;;;;;;3.40;1.10;;;7.20;99.90;;;;;;5062669;28;20040;-21
2023/04/11 02:49:50;;;;;;;1.92;0.55;;;7.20;99.90;;;;;;5079601;28;20486;-21
2023/04/11 02:52:17;;;;;;;4.45;0.85;;;7.20;99.90;;;;;;5079891;28;20044;-21
2023/04/11 02:54:44;;;;;;;4.63;1.20;;;7.20;99.90;;;;;;5079876;28;20053;-21
2023/04/11 02:57:11;;;;;;;4.70;0.90;;;7.20;99.90;;;;;;5062197;28;20131;-20
2023/04/11 02:59:37;;;;;;;8.25;2.17;;;7.30;99.90;;;;;;5062335;28;20048;-20
2023/04/11 03:02:03;;;;;;;4.93;1.23;;;7.10;99.90;;;;;;5079884;28;20053;-22
2023/04/11 03:04:28;;;;;;;5.50;1.55;;;7.20;99.90;;;;;;5061936;28;20434;-22
2023/04/11 03:06:54;;;;;;;4.53;0.95;;;7.10;99.90;;;;;;5079776;28;20044;-21
2023/04/11 03:09:20;;;;;;;8.55;1.75;;;7.20;99.90;;;;;;5079739;28;20048;-21
2023/04/11 03:11:46;;;;;;;13.43;3.00;;;7.10;99.90;;;;;;5045139;28;20093;-21
2023/04/11 03:14:11;;;;;;;11.35;1.90;;;7.20;99.90;;;;;;5079691;28;20048;-22
2023/04/11 03:16:37;;;;;;;7.65;1.25;;;7.20;99.90;;;;;;5079654;28;20086;-22
2023/04/11 03:19:03;;;;;;;12.10;2.33;;;7.20;99.90;;;;;;5061993;28;20215;-22
2023/04/11 03:21:30;;;;;;;8.00;2.15;;;7.20;99.90;;;;;;5061888;28;20056;-22
2023/04/11 03:23:56;;;;;;;6.07;1.60;;;7.20;99.90;;;;;;5079504;28;20048;-21
2023/04/11 03:26:25;;;;;;;13.73;3.13;;;7.10;99.90;;;;;;5061703;28;20052;-21
2023/04/11 03:28:54;;;;;;;12.43;2.05;;;7.30;99.90;;;;;;5079844;28;20397;-21
2023/04/11 03:31:20;;;;;;;13.95;2.55;;;7.20;99.90;;;;;;5080241;28;20048;-21
2023/04/11 03:33:46;;;;;;;8.00;1.58;;;7.20;99.90;;;;;;5080282;28;20139;-21
2023/04/11 03:36:12;;;;;;;9.48;1.33;;;7.20;99.90;;;;;;5075686;28;20119;-21
2023/04/11 03:38:37;;;;;;;12.20;1.63;;;7.30;99.90;;;;;;5058779;28;20089;-22
2023/04/11 03:41:04;;;;;;;2.88;1.15;;;7.40;99.90;;;;;;5076064;28;20044;-22
2023/04/11 03:43:29;;;;;;;7.32;1.63;;;7.40;99.90;;;;;;5059320;28;20048;-21
2023/04/11 03:45:55;;;;;;;7.40;1.95;;;7.50;99.90;;;;;;5058866;28;20052;-22
2023/04/11 03:48:25;;;;;;;8.77;2.03;;;7.50;99.90;;;;;;5076027;28;20158;-22
2023/04/11 03:50:51;;;;;;;8.55;1.90;;;7.60;99.90;;;;;;5076562;28;20137;-22
2023/04/11 03:53:17;;;;;;;16.40;3.15;;;7.60;99.90;;;;;;5075919;28;20045;-22
2023/04/11 03:55:43;;;;;;;7.50;2.17;;;7.50;99.90;;;;;;5075851;28;20048;-22
2023/04/11 03:58:10;;;;;;;4.38;1.52;;;7.60;99.90;;;;;;5075846;28;20140;-22
2023/04/11 04:00:36;;;;;;;10.38;2.15;;;7.60;99.90;;;;;;5075786;28;20040;-22
2023/04/11 04:03:02;;;;;;;5.53;1.52;;;7.50;99.90;;;;;;5075636;28;20040;-22
2023/04/11 04:05:28;;;;;;;11.43;2.55;;;7.60;99.90;;;;;;5058012;28;20076;-23
2023/04/11 04:07:53;;;;;;;10.57;2.28;;;7.60;99.90;;;;;;5057822;28;20048;-22
2023/04/11 04:10:19;;;;;;;9.20;1.95;;;7.60;99.90;;;;;;5075962;28;20041;-22
2023/04/11 04:12:45;;;;;;;11.02;2.10;;;7.60;99.90;;;;;;5075938;28;20048;-22
2023/04/11 04:15:13;;;;;;;6.00;1.52;;;7.50;99.90;;;;;;5075641;28;20127;-22
2023/04/11 04:17:40;;;;;;;10.57;2.60;;;7.60;99.90;;;;;;5075613;28;20048;-23
2023/04/11 04:20:09;;;;;;;4.25;1.20;;;7.50;99.90;;;;;;5076097;28;20095;-22
2023/04/11 04:22:36;;;;;;;9.23;1.90;;;7.50;99.90;;;;;;5075502;28;20040;-22
2023/04/11 04:25:03;;;;;;;10.95;2.08;;;7.60;99.90;;;;;;5075395;28;20044;-22
2023/04/11 04:27:28;;;;;;;5.05;0.73;;;7.50;99.90;;;;;;5075377;28;20083;-22
2023/04/11 04:29:55;;;;;;;7.75;1.90;;;7.50;99.90;;;;;;5057358;28;20083;-22
2023/04/11 04:32:22;;;;;;;8.32;1.42;;;7.50;99.90;;;;;;5074972;28;20581;-22
2023/04/11 04:34:54;;;;;;;10.25;2.38;;;7.50;99.90;;;;;;5057665;28;20056;-22
2023/04/11 04:37:25;;;;;;;5.13;1.67;;;7.40;99.90;;;;;;5075356;28;20052;-22
2023/04/11 04:39:53;;;;;;;3.70;1.70;;;7.40;99.90;;;;;;5075072;28;20487;-22
2023/04/11 04:42:22;;;;;;;5.65;2.13;;;7.30;99.90;;;;;;5075115;28;20518;-22
2023/04/11 04:44:53;;;;;;;25.35;3.88;;;7.20;99.90;;;;;;5075692;28;20154;-22
2023/04/11 04:47:21;;;;;;;5.95;1.35;;;7.20;99.90;;;;;;5074851;28;20162;-22
2023/04/11 04:49:47;;;;;;;10.98;1.45;;;7.30;99.90;;;;;;5057188;28;20047;-22
2023/04/11 04:52:14;;;;;;;7.95;1.70;;;7.30;99.90;;;;;;5040407;28;20048;-22
2023/04/11 04:54:40;;;;;;;7.10;1.38;;;7.40;99.90;;;;;;5057288;28;20048;-22
2023/04/11 04:57:06;;;;;;;7.90;1.90;;;7.40;99.90;;;;;;5040609;28;20548;-21
2023/04/11 04:59:32;;;;;;;5.85;1.58;;;7.30;99.90;;;;;;5041200;28;20132;-21
2023/04/11 05:01:58;;;;;;;4.47;0.98;;;7.10;99.90;;;;;;5057605;28;20127;-22
2023/04/11 05:04:24;;;;;;;4.28;0.95;;;6.70;99.90;;;;;;5057260;28;20058;-23
2023/04/11 05:06:49;;;;;;;8.50;1.92;;;6.50;99.90;;;;;;5056973;28;20052;-23
2023/04/11 05:09:16;;;;;;;7.05;1.60;;;6.50;99.90;;;;;;5074631;28;20052;-24
2023/04/11 05:11:42;;;;;;;3.10;1.00;;;6.50;99.90;;;;;;5075399;28;20102;-24
2023/04/11 05:14:08;;;;;;;4.80;0.75;;;6.40;99.90;;;;;;5056722;28;20045;-25
2023/04/11 05:16:34;;;;;;;4.68;0.88;;;6.10;99.90;;;;;;5074449;28;20049;-25
2023/04/11 05:19:00;;;;;;;3.15;0.60;;;5.80;99.90;;;;;;5074310;28;20067;-25
2023/04/11 05:21:25;;;;;;;2.67;0.80;;;6.10;99.90;;;;;;5056772;28;20048;-25
2023/04/11 05:23:51;;;;;;;3.70;0.82;;;6.00;99.90;;;;;;5056571;28;20048;-25
2023/04/11 05:26:17;;;;;;;8.23;1.75;;;5.90;99.90;;;;;;5056378;28;20044;-25
2023/04/11 05:28:43;;;;;;;14.77;2.40;;;6.10;99.90;;;;;;5039560;28;20044;-26
2023/04/11 05:31:10;;;;;;;14.13;2.10;;;6.30;99.90;;;;;;5074222;28;20057;-27
2023/04/11 05:33:37;;;;;;;8.45;1.48;;;6.40;99.90;;;;;;5074688;28;20056;-27
2023/04/11 05:36:03;;;;;;;10.88;2.72;;;6.50;99.90;;;;;;5056517;28;20483;-27
2023/04/11 05:38:32;;;;;;;16.27;2.65;;;6.60;99.90;;;;;;5073970;28;20490;-26
2023/04/11 05:40:58;;;;;;;9.90;1.95;;;6.60;99.90;;;;;;5056187;28;20124;-26
2023/04/11 05:43:24;;;;;;;12.38;1.60;;;6.80;99.90;;;;;;5056208;28;20044;-26
2023/04/11 05:45:50;;;;;;;10.77;2.65;;;7.00;99.90;;;;;;5073633;28;20101;-25
2023/04/11 05:48:20;;;;;;;12.57;2.70;;;7.00;99.90;;;;;;5074168;28;20455;-26
2023/04/11 05:50:46;;;;;;;9.02;2.28;;;7.10;99.90;;;;;;5073843;28;20045;-26
2023/04/11 05:53:12;;;;;;;10.85;2.95;;;7.10;99.90;;;;;;5073798;28;20122;-26
2023/04/11 05:55:37;;;;;;;8.00;1.85;;;7.10;99.90;;;;;;5073825;28;20044;-25
2023/04/11 05:58:04;;;;;;;13.88;2.00;;;7.20;99.90;;;;;;5073119;28;20463;-25
2023/04/11 06:00:31;;;;;;;8.18;2.50;;;7.30;99.90;;;;;;5073572;28;20048;-25
2023/04/11 06:02:57;;;;;;;7.90;2.10;;;7.40;99.90;;;;;;5074460;28;20052;-26
2023/04/11 06:05:23;;;;;;;9.55;1.80;;;7.40;99.90;;;;;;5074146;28;20068;-26
2023/04/11 06:07:49;;;;;;;8.38;2.30;;;7.30;99.90;;;;;;5074165;28;20094;-25
2023/04/11 06:10:15;;;;;;;11.40;2.72;;;7.30;99.90;;;;;;5073750;28;20045;-26
2023/04/11 06:12:41;;;;;;;13.90;2.30;;;7.40;99.90;;;;;;5073588;28;20048;-26
2023/04/11 06:15:08;;;;;;;12.35;3.00;;;7.30;99.90;;;;;;5073770;28;20053;-26
2023/04/11 06:17:34;;;;;;;10.32;2.80;;;7.30;99.90;;;;;;5074385;28;20070;-25
2023/04/11 06:20:00;;;;;;;12.35;3.05;;;7.30;99.90;;;;;;5073466;28;20048;-25
2023/04/11 06:22:26;;;;;;;11.57;1.90;;;7.40;99.90;;;;;;5074025;28;20045;-25
2023/04/11 06:24:51;;;;;;;12.13;3.15;;;7.50;99.90;;;;;;5055749;28;20051;-24
2023/04/11 06:27:17;;;;;;;5.68;1.05;;;7.50;99.90;;;;;;5073558;28;20049;-24
2023/04/11 06:29:43;;;;;;;7.55;2.08;;;7.50;99.90;;;;;;5073344;28;20057;-25
2023/04/11 06:32:10;;;;;;;12.60;2.53;;;7.60;99.90;;;;;;5073956;28;20138;-24
2023/04/11 06:34:38;;;;;;;16.38;3.08;;;7.60;99.90;;;;;;5073471;28;20045;-24
2023/04/11 06:37:05;;;;;;;5.25;1.67;;;7.70;99.90;;;;;;5056094;28;20087;-24
2023/04/11 06:39:30;;;;;;;10.85;2.90;;;7.50;99.90;;;;;;5056398;28;20483;-25
2023/04/11 06:41:56;;;;;;;13.57;2.85;;;7.40;99.90;;;;;;5073231;28;20055;-24
2023/04/11 06:44:22;;;;;;;11.90;2.65;;;7.20;99.90;;;;;;5073839;28;20062;-25
2023/04/11 06:46:47;;;;;;;13.95;3.03;;;7.00;99.90;;;;;;5038818;28;20124;-26
2023/04/11 06:49:13;;;;;;;13.40;2.33;;;7.00;99.90;;;;;;5073203;28;20132;-26
2023/04/11 06:51:39;;;;;;;10.65;2.00;;;7.30;99.90;;;;;;5055335;28;20052;-26
2023/04/11 06:54:05;;;;;;;15.20;2.92;;;7.40;99.90;;;;;;5073265;28;20060;-25
2023/04/11 06:56:31;;;;;;;9.35;2.08;;;7.50;99.90;;;;;;5073250;28;20053;-25
2023/04/11 06:58:57;;;;;;;8.15;1.90;;;7.60;99.90;;;;;;5055831;28;20049;-25
2023/04/11 07:01:29;;;;;;;6.65;1.67;;;7.70;99.90;;;;;;5073631;28;20040;-25
2023/04/11 07:03:55;;;;;;;11.68;1.98;;;7.90;1.00;;;;;;5073205;28;20060;-25
2023/04/11 07:06:21;;;;;;;17.90;3.28;;;8.00;25.20;;;;;;5073013;28;20101;-25
2023/04/11 07:08:47;;;;;;;9.60;2.60;;;8.10;1.00;;;;;;5073134;28;20131;-25
2023/04/11 07:11:13;;;;;;;6.10;1.80;;;8.10;1.00;;;;;;5074939;28;20076;-25
2023/04/11 07:13:39;;;;;;;16.25;2.70;;;8.00;99.90;;;;;;5076996;28;20052;-25
2023/04/11 07:16:05;;;;;;;11.05;1.90;;;8.10;99.90;;;;;;5077285;28;20044;-25
2023/04/11 07:18:31;;;;;;;13.45;1.85;;;8.10;99.90;;;;;;5076747;28;20044;-25
2023/04/11 07:20:57;;;;;;;10.18;2.30;;;8.20;99.90;;;;;;5058690;28;20051;-24
2023/04/11 07:23:22;;;;;;;15.95;2.53;;;8.20;99.90;;;;;;5076630;28;20080;-24
2023/04/11 07:25:48;;;;;;;8.45;2.40;;;8.30;99.90;;;;;;5076775;28;20040;-24
2023/04/11 07:28:14;;;;;;;8.73;1.40;;;8.40;99.90;;;;;;5077329;28;20044;-24
2023/04/11 07:30:41;;;;;;;12.90;2.20;;;8.40;99.90;;;;;;5059068;28;20149;-24
2023/04/11 07:33:08;;;;;;;10.80;2.65;;;8.50;99.90;;;;;;5058788;28;20510;-24
2023/04/11 07:35:34;;;;;;;11.25;2.25;;;8.70;99.90;;;;;;5076455;28;20048;-24
2023/04/11 07:38:00;;;;;;;11.45;2.00;;;8.60;1.00;;;;;;5076402;28;20397;-24
2023/04/11 07:40:27;;;;;;;10.27;1.83;;;9.00;99.90;;;;;;5076177;28;20044;-24
2023/04/11 07:42:52;;;;;;;10.07;1.88;;;8.90;7.90;;;;;;5058573;28;20057;-24
2023/04/11 07:45:19;;;;;;;11.30;2.45;;;8.80;1.00;;;;;;5058622;28;20055;-23
2023/04/11 07:47:45;;;;;;;10.55;2.20;;;8.90;99.90;;;;;;5076739;28;20040;-24
2023/04/11 07:50:11;;;;;;;9.20;2.15;;;8.60;1.00;;;;;;5058219;28;20044;-24
2023/04/11 07:52:36;;;;;;;9.98;1.15;;;8.40;99.90;;;;;;5058323;28;20055;-24
2023/04/11 07:55:03;;;;;;;11.65;2.35;;;8.30;99.90;;;;;;5075772;28;20044;-23
2023/04/11 07:57:29;;;;;;;9.25;1.98;;;8.30;1.00;;;;;;5075800;28;20677;-23
2023/04/11 07:59:57;;;;;;;12.80;2.08;;;8.30;1.00;;;;;;5042377;28;20171;-23
2023/04/11 08:02:23;;;;;;;16.08;2.25;;;8.30;99.90;;;;;;5076480;28;20089;-23
2023/04/11 08:04:49;;;;;;;8.98;1.55;;;8.30;99.90;;;;;;5076208;28;20135;-23
2023/04/11 08:07:15;;;;;;;7.03;1.90;;;8.70;1.00;;;;;;5076179;28;20452;-23
2023/04/11 08:09:41;;;;;;;13.00;1.55;;;8.90;1.00;;;;;;5075956;28;20037;-23
2023/04/11 08:12:07;;;;;;;10.05;1.83;;;8.90;1.00;;;;;;5076528;28;20383;-22
2023/04/11 08:14:34;;;;;;;13.32;2.13;;;9.20;99.90;;;;;;5075965;28;20048;-22
2023/04/11 08:17:00;;;;;;;13.43;3.55;;;9.20;1.00;;;;;;5075553;28;20509;-22
2023/04/11 08:19:26;;;;;;;13.07;1.83;;;8.90;1.00;;;;;;5058639;28;20123;-23
2023/04/11 08:21:52;;;;;;;5.07;1.60;;;8.70;1.00;;;;;;5074981;28;20040;-22
2023/04/11 08:24:18;;;;;;;12.30;2.78;;;8.60;99.90;;;;;;5076045;28;20055;-22
2023/04/11 08:26:44;;;;;;;10.52;2.28;;;8.60;1.00;;;;;;5075647;28;20048;-22
2023/04/11 08:29:10;;;;;;;12.63;2.03;;;8.80;99.90;;;;;;5075553;28;20384;-22
2023/04/11 08:31:36;;;;;;;16.48;2.42;;;8.70;1.00;;;;;;5075836;28;20048;-22
2023/04/11 08:34:02;;;;;;;8.75;2.28;;;9.00;36.50;;;;;;5075279;28;20106;-22
2023/04/11 08:36:30;;;;;;;12.10;1.90;;;9.10;65.10;;;;;;5076034;28;20049;-22
2023/04/11 08:38:55;;;;;;;15.73;2.40;;;9.30;1.00;;;;;;5075220;28;20045;-22
2023/04/11 08:41:22;;;;;;;10.65;1.95;;;9.40;1.00;;;;;;5075035;28;20041;-22
2023/04/11 08:43:48;;;;;;;5.13;1.33;;;9.50;1.00;;;;;;5075782;28;20113;-22
2023/04/11 08:46:14;;;;;;;10.55;1.65;;;9.90;1.00;;;;;;5075526;28;20437;-22
2023/04/11 08:48:40;;;;;;;12.15;2.05;;;9.80;99.90;;;;;;5074921;28;20089;-22
2023/04/11 08:51:06;;;;;;;13.43;3.03;;;9.70;99.90;;;;;;5075406;28;20131;-22
2023/04/11 08:53:35;;;;;;;11.27;1.50;;;9.30;99.90;;;;;;5040552;28;20048;-22
2023/04/11 08:56:02;;;;;;;10.85;1.55;;;8.80;99.90;;;;;;5074823;28;20413;-22
2023/04/11 08:58:28;;;;;;;8.63;1.33;;;8.60;7.10;;;;;;5075363;28;20041;-22
2023/04/11 09:00:54;;;;;;;10.25;1.42;;;9.30;99.90;;;;;;5074680;28;20045;-22
2023/04/11 09:03:19;;;;;;;8.23;1.80;;;9.70;99.90;;;;;;5056859;28;20394;-22
2023/04/11 09:05:45;;;;;;;9.52;2.10;;;10.10;6.60;;;;;;5075191;28;20048;-20
2023/04/11 09:08:13;;;;;;;7.82;1.10;;;8.00;99.90;;;;;;5075382;28;20041;-20
2023/04/11 09:10:41;;;;;;;3.67;0.60;;;7.10;33.90;;;;;;5056877;28;20478;-21
2023/04/11 09:13:27;;;;;;;5.05;1.40;;;5.50;99.90;;;;;;5057399;28;20051;-21
2023/04/11 09:16:13;;;;;;;11.30;1.17;;;5.90;99.90;;;;;;5075066;28;20109;-22
2023/04/11 09:18:45;;;;;;;11.35;2.15;;;6.50;99.90;;;;;;5056860;28;20425;-22
2023/04/11 09:21:13;;;;;;;8.55;1.90;;;6.80;99.90;;;;;;5056568;28;20041;-22
2023/04/11 09:23:39;;;;;;;16.88;3.85;;;7.20;99.90;;;;;;5056707;28;20088;-22
2023/04/11 09:26:06;;;;;;;11.85;1.95;;;7.00;99.90;;;;;;5074216;28;20128;-22
2023/04/11 09:28:52;;;;;;;7.93;1.58;;;7.10;99.90;;;;;;5056152;28;20036;-22
2023/04/11 09:31:36;;;;;;;5.72;1.33;;;7.70;99.90;;;;;;5074445;28;20123;-22
2023/04/11 09:34:02;;;;;;;7.15;1.38;;;8.10;99.90;;;;;;5073823;28;20048;-23
2023/04/11 09:36:28;;;;;;;5.88;1.23;;;8.70;95.80;;;;;;5057034;28;20106;-23
2023/04/11 09:38:54;;;;;;;9.85;1.48;;;9.20;99.90;;;;;;5056795;28;20048;-23
2023/04/11 09:41:31;;;;;;;10.15;2.47;;;9.70;1.00;;;;;;5074019;28;20052;-23
2023/04/11 09:43:58;;;;;;;10.23;2.00;;;9.90;99.90;;;;;;5056775;28;20052;-23
2023/04/11 09:46:24;;;;;;;7.95;2.15;;;10.40;1.00;;;;;;5039678;28;20078;-23
2023/04/11 09:48:53;;;;;;;7.32;1.40;;;10.20;1.00;;;;;;5073933;28;20092;-23
2023/04/11 09:51:19;;;;;;;4.97;1.02;;;9.60;1.00;;;;;;5074449;28;20044;-23
2023/04/11 09:53:45;;;;;;;4.78;0.93;;;8.70;1.00;;;;;;5073889;28;20057;-22
2023/04/11 09:56:12;;;;;;;6.43;1.10;;;8.00;99.90;;;;;;5073825;28;20399;-22
2023/04/11 09:58:38;;;;;;;7.88;1.65;;;7.60;1.00;;;;;;5074592;28;20086;-22
2023/04/11 10:01:07;;;;;;;5.55;0.90;;;7.50;99.90;;;;;;5073728;28;20044;-22
2023/04/11 10:03:38;;;;;;;5.75;0.98;;;7.80;99.90;;;;;;5073763;28;20114;-22
2023/04/11 10:06:32;;;;;;;7.07;0.90;;;8.40;99.90;;;;;;5074076;28;20048;-22
2023/04/11 10:09:11;;;;;;;6.55;0.70;;;;;;;;;;5056803;28;20124;-23
2023/04/11 10:11:42;;;;;;;8.00;1.13;;;9.70;1.00;;;;;;5055650;28;20199;-22
2023/04/11 10:14:08;;;;;;;6.07;1.42;;;9.80;99.90;;;;;;5022969;28;20148;-22
2023/04/11 10:16:34;;;;;;;7.53;1.08;;;9.90;99.90;;;;;;5055601;28;20458;-22
2023/04/11 10:19:03;;;;;;;7.68;1.38;;;9.20;99.90;;;;;;5039085;28;20048;-22
2023/04/11 10:21:29;;;;;;;5.57;1.52;;;9.20;1.00;;;;;;5055591;28;20056;-22
2023/04/11 10:24:16;;;;;;;2.38;0.55;;;8.70;1.00;;;;;;5055987;28;20471;-22
2023/04/11 10:26:48;;;;;;;9.45;1.73;;;7.90;1.00;;;;;;5055447;28;20117;-21
2023/04/11 10:29:32;;;;;;;4.28;1.38;;;7.40;99.90;;;;;;5073193;28;20060;-22
2023/04/11 10:32:12;;;;;;;2.00;0.60;;;7.10;1.00;;;;;;5074118;28;20053;-21
2023/04/11 10:34:40;;;;;;;7.57;1.77;;;6.90;1.00;;;;;;5073283;28;20053;-21
2023/04/11 10:37:08;;;;;;;10.85;1.73;;;6.80;1.00;;;;;;5055525;28;20483;-21
2023/04/11 10:39:52;;;;;;;2.05;0.60;;;6.80;1.00;;;;;;5073468;28;20040;-21
2023/04/11 10:42:38;;;;;;;9.88;1.27;;;6.80;1.00;;;;;;5073296;28;20490;-21
2023/04/11 10:45:16;;;;;;;7.90;1.10;;;7.10;83.30;;;;;;5075076;28;20048;-21
2023/04/11 10:48:06;;;;;;;5.30;1.77;;;7.30;1.00;;;;;;5059313;28;20102;-22
2023/04/11 10:50:39;;;;;;;5.60;1.77;;;7.80;1.00;;;;;;5077551;28;20355;-22
2023/04/11 10:53:06;;;;;;;8.48;1.15;;;7.90;1.00;;;;;;5060335;28;20083;-21
2023/04/11 10:55:46;;;;;;;4.53;0.93;;;7.50;1.00;;;;;;5077644;28;20439;-20
2023/04/11 10:58:18;;;;;;;8.38;1.38;;;7.10;1.00;;;;;;5059657;28;20080;-20
2023/04/11 11:00:50;;;;;;;10.23;1.97;;;7.10;90.70;;;;;;5077047;28;20033;-22
2023/04/11 11:03:26;;;;;;;11.70;1.95;;;7.20;99.90;;;;;;5042568;28;20772;-22
2023/04/11 11:06:04;;;;;;;10.27;1.90;;;7.60;99.90;;;;;;5060125;28;20052;-22
2023/04/11 11:08:36;;;;;;;12.73;1.95;;;8.60;99.90;;;;;;5076812;28;20036;-22
2023/04/11 11:11:07;;;;;;;10.32;2.17;;;9.50;99.90;;;;;;5076899;28;20037;-22
2023/04/11 11:13:51;;;;;;;6.82;1.55;;;9.90;1.00;;;;;;5076908;28;20404;-22
2023/04/11 11:16:25;;;;;;;8.85;1.08;;;10.00;94.10;;;;;;5059894;28;20110;-22
2023/04/11 11:18:51;;;;;;;;;;;9.90;99.90;;;;;;5059311;28;20041;-22
2023/04/11 11:21:21;;;;;;;10.05;1.60;;;10.10;99.90;;;;;;5076547;28;20019;-22
2023/04/11 11:23:59;;;;;;;6.32;1.15;;;10.50;99.90;;;;;;5059115;28;20048;-22
2023/04/11 11:26:46;;;;;;;10.73;1.52;;;9.70;1.00;;;;;;5076651;28;20067;-22
2023/04/11 11:29:12;;;;;;;6.72;1.35;;;8.30;99.90;;;;;;5059209;28;20130;-22
2023/04/11 11:31:48;;;;;;;8.98;1.48;;;7.80;99.90;;;;;;5076564;28;20471;-22
2023/04/11 11:34:29;;;;;;;8.02;1.55;;;8.30;1.00;;;;;;5076737;28;20049;-22
2023/04/11 11:36:56;;;;;;;12.02;2.33;;;8.40;99.90;;;;;;5076294;28;20094;-23
2023/04/11 11:39:23;;;;;;;7.35;1.23;;;7.80;99.90;;;;;;5058228;28;20052;-23
2023/04/11 11:41:51;;;;;;;6.97;1.02;;;8.40;1.00;;;;;;5058492;28;20589;-23
2023/04/11 11:44:27;;;;;;;5.55;1.10;;;9.00;99.90;;;;;;5076137;28;20079;-22
2023/04/11 11:47:19;;;;;;;5.00;1.52;;;9.10;99.90;;;;;;5076045;28;20080;-23
2023/04/11 11:49:55;;;;;;;8.82;1.77;;;9.40;1.00;;;;;;5072115;28;20049;-23
2023/04/11 11:52:35;;;;;;;10.75;1.95;;;10.00;1.00;;;;;;5076673;28;20052;-23
2023/04/11 11:55:04;;;;;;;12.60;2.05;;;9.90;99.90;;;;;;5076109;28;20055;-22
2023/04/11 11:57:33;;;;;;;11.15;2.30;;;9.50;99.90;;;;;;5075087;28;20048;-21
2023/04/11 12:00:04;;;;;;;7.60;1.75;;;8.00;99.90;;;;;;5058122;28;20048;-22
2023/04/11 12:02:34;;;;;;;7.68;1.10;;;6.60;1.00;;;;;;5075950;28;20478;-24
2023/04/11 12:05:03;;;;;;;5.82;0.88;;;6.80;99.90;;;;;;5076061;28;20501;-23
2023/04/11 12:07:37;;;;;;;10.38;1.42;;;7.00;99.90;;;;;;5058062;28;20053;-23
2023/04/11 12:10:07;;;;;;;8.45;1.48;;;7.80;99.90;;;;;;5076230;28;20048;-23
2023/04/11 12:12:38;;;;;;;16.45;2.22;;;8.90;99.90;;;;;;5075573;28;20048;-24
2023/04/11 12:15:15;;;;;;;7.93;2.15;;;9.80;99.90;;;;;;5075485;28;20045;-23
2023/04/11 12:17:41;;;;;;;11.23;2.25;;;10.40;99.90;;;;;;5075537;28;20093;-23
2023/04/11 12:20:09;;;;;;;11.15;1.65;;;10.20;1.00;;;;;;5075887;28;20048;-23
2023/04/11 12:22:35;;;;;;;5.90;1.30;;;9.50;99.90;;;;;;5071478;28;20105;-23
2023/04/11 12:25:09;;;;;;;6.72;1.15;;;9.20;1.00;;;;;;5075350;28;20044;-23
2023/04/11 12:27:41;;;;;;;2.92;0.73;;;8.80;1.00;;;;;;5058503;28;20048;-23
2023/04/11 12:30:08;;;;;;;5.18;1.00;;;8.40;1.00;;;;;;5057719;28;20509;-23
2023/04/11 12:32:34;;;;;;;7.55;1.52;;;8.50;1.00;;;;;;5075349;28;20056;-22
2023/04/11 12:35:01;;;;;;;10.55;1.52;;;8.60;61.40;;;;;;5075283;28;20437;-22
2023/04/11 12:37:27;;;;;;;11.55;1.73;;;8.90;99.90;;;;;;5075278;28;20439;-23
2023/04/11 12:39:53;;;;;;;9.43;1.58;;;9.10;99.90;;;;;;5075074;28;20127;-22
2023/04/11 12:42:19;;;;;;;6.72;1.25;;;8.90;99.90;;;;;;5057436;28;20059;-22
2023/04/11 12:44:46;;;;;;;5.00;1.00;;;8.60;99.90;;;;;;5057300;28;20049;-22
2023/04/11 12:47:12;;;;;;;4.97;0.90;;;8.30;99.90;;;;;;5075135;28;20048;-22
2023/04/11 12:49:38;;;;;;;6.85;1.23;;;8.90;29.30;;;;;;5075039;28;20040;-22
2023/04/11 12:52:05;;;;;;;9.20;1.92;;;9.10;1.00;;;;;;5057341;28;20036;-22
2023/04/11 12:54:32;;;;;;;5.32;1.25;;;8.80;99.90;;;;;;5074835;28;20050;-22
2023/04/11 12:56:58;;;;;;;3.03;0.73;;;8.50;1.00;;;;;;5075407;28;20055;-22
2023/04/11 12:59:28;;;;;;;5.13;1.08;;;8.60;99.90;;;;;;5074477;28;20464;-23